TimeHST,TemperatureF,Dew PointF,Humidity,Sea Level PressureIn,VisibilityMPH,Wind Direction,Wind SpeedMPH,Gust SpeedMPH,PrecipitationIn,Events,Conditions,WindDirDegrees,DateUTC
12:53 AM,73.0,61.0,66,29.97,10.0,ESE,8.1,-,N/A,,Clear,120,2012-12-29 10:53:00
1:53 AM,72.0,62.1,71,29.96,10.0,ESE,8.1,-,N/A,,Clear,120,2012-12-29 11:53:00
2:53 AM,72.0,61.0,68,29.95,10.0,East,6.9,-,N/A,,Clear,100,2012-12-29 12:53:00
3:53 AM,71.1,61.0,70,29.96,10.0,East,4.6,-,N/A,,Clear,90,2012-12-29 13:53:00
4:53 AM,70.0,61.0,73,29.97,10.0,East,5.8,-,N/A,,Clear,90,2012-12-29 14:53:00
5:53 AM,70.0,60.1,71,29.98,10.0,East,6.9,-,N/A,,Clear,80,2012-12-29 15:53:00
6:53 AM,70.0,57.0,63,29.99,10.0,ENE,5.8,-,N/A,,Clear,70,2012-12-29 16:53:00
7:53 AM,72.0,57.0,59,30.00,10.0,ENE,3.5,-,N/A,,Clear,70,2012-12-29 17:53:00
8:53 AM,75.9,64.9,69,30.01,10.0,South,6.9,-,N/A,,Clear,180,2012-12-29 18:53:00
9:53 AM,78.1,64.9,64,30.01,10.0,South,8.1,-,N/A,,Partly Cloudy,190,2012-12-29 19:53:00
10:53 AM,79.0,66.0,64,30.01,10.0,South,8.1,-,N/A,,Clear,190,2012-12-29 20:53:00
11:53 AM,80.1,66.0,62,29.99,10.0,SW,9.2,-,N/A,,Clear,230,2012-12-29 21:53:00
12:53 PM,80.1,66.0,62,29.95,10.0,WSW,9.2,-,N/A,,Clear,240,2012-12-29 22:53:00
1:53 PM,79.0,64.9,62,29.93,10.0,SW,9.2,-,N/A,,Clear,230,2012-12-29 23:53:00
2:53 PM,79.0,66.0,64,29.92,10.0,SW,8.1,-,N/A,,Mostly Cloudy,230,2012-12-30 00:53:00
3:53 PM,80.1,66.0,62,29.92,10.0,WSW,9.2,-,N/A,,Mostly Cloudy,250,2012-12-30 01:53:00
4:53 PM,78.1,64.9,64,29.93,10.0,WSW,5.8,-,N/A,,Overcast,240,2012-12-30 02:53:00
5:53 PM,77.0,64.9,66,29.94,10.0,SSW,6.9,-,N/A,,Mostly Cloudy,210,2012-12-30 03:53:00
6:53 PM,75.9,64.9,69,29.95,10.0,South,5.8,-,N/A,,Clear,180,2012-12-30 04:53:00
7:53 PM,75.9,64.9,69,29.96,10.0,SSE,5.8,-,N/A,,Clear,160,2012-12-30 05:53:00
8:53 PM,73.9,64.0,71,29.97,10.0,ESE,6.9,-,N/A,,Clear,110,2012-12-30 06:53:00
9:53 PM,73.9,64.0,71,29.98,10.0,ESE,3.5,-,N/A,,Mostly Cloudy,120,2012-12-30 07:53:00
10:53 PM,73.9,64.0,71,29.96,10.0,SE,5.8,-,N/A,,Scattered Clouds,130,2012-12-30 08:53:00
11:53 PM,73.0,63.0,71,29.96,10.0,East,5.8,-,N/A,,Clear,100,2012-12-30 09:53:00